Time;durP1;ratioP1;P1;durP2;ratioP2;P2;SDS_P1;SDS_P2;PMS_P1;PMS_P2;Temp;Humidity;BMP_temperature;BMP_pressure;BME280_temperature;BME280_humidity;BME280_pressure;Samples;Min_cycle;Max_cycle;Signal;HPM_P1;HPM_P2
2023/05/28 00:00:40;;;;;;;12.32;3.47;;;13.70;99.90;;;;;;12440401;28;20057;-38
2023/05/28 00:06:42;;;;;;;10.70;3.45;;;13.60;99.90;;;;;;12451399;28;20045;-38
2023/05/28 00:12:44;;;;;;;4.78;2.78;;;13.40;99.90;;;;;;12446659;28;20054;-38
2023/05/28 00:18:46;;;;;;;8.15;3.05;;;13.40;99.90;;;;;;12441259;28;20057;-38
2023/05/28 00:24:48;;;;;;;8.43;3.00;;;13.40;99.90;;;;;;12446627;28;20057;-37
2023/05/28 00:30:50;;;;;;;7.05;2.53;;;13.30;99.90;;;;;;12448421;28;20053;-38
2023/05/28 00:36:53;;;;;;;6.03;2.60;;;13.30;99.90;;;;;;12451237;28;20046;-38
2023/05/28 00:42:55;;;;;;;6.78;3.08;;;13.20;99.90;;;;;;12444412;28;20082;-39
2023/05/28 00:48:57;;;;;;;7.13;2.70;;;13.00;99.90;;;;;;12440255;28;20073;-37
2023/05/28 00:54:59;;;;;;;7.82;2.97;;;12.70;99.90;;;;;;12431621;28;20045;-38
2023/05/28 01:01:02;;;;;;;6.28;2.85;;;12.60;99.90;;;;;;12458283;28;20053;-38
2023/05/28 01:07:04;;;;;;;5.57;2.45;;;12.50;99.90;;;;;;12444185;28;20050;-37
2023/05/28 01:13:08;;;;;;;7.97;3.55;;;12.40;99.90;;;;;;12439936;28;20049;-37
2023/05/28 01:19:11;;;;;;;;;;;12.50;99.90;;;;;;12441423;28;20077;-38
2023/05/28 01:25:14;;;;;;;8.75;3.42;;;12.20;99.90;;;;;;12453226;28;19928;-36
2023/05/28 01:31:18;;;;;;;8.40;2.78;;;12.20;99.90;;;;;;12441827;28;20045;-37
2023/05/28 01:37:21;;;;;;;11.25;3.05;;;12.30;99.90;;;;;;12448993;28;20050;-37
2023/05/28 01:43:24;;;;;;;8.57;3.03;;;12.20;99.90;;;;;;12448046;28;20501;-39
2023/05/28 01:49:26;;;;;;;7.13;2.92;;;12.20;99.90;;;;;;12441581;28;20061;-38
2023/05/28 01:55:28;;;;;;;8.20;3.40;;;12.40;99.90;;;;;;12438298;28;20085;-37
2023/05/28 02:01:35;;;;;;;9.45;3.30;;;12.30;99.90;;;;;;12444413;28;20409;-37
2023/05/28 02:07:37;;;;;;;7.68;2.70;;;12.10;99.90;;;;;;12450125;28;20191;-37
2023/05/28 02:13:39;;;;;;;7.15;3.47;;;12.00;99.90;;;;;;12440034;28;20085;-38
2023/05/28 02:19:41;;;;;;;6.25;2.92;;;11.90;99.90;;;;;;12442436;28;20062;-38
2023/05/28 02:25:43;;;;;;;9.95;3.25;;;11.90;99.90;;;;;;12440713;28;20046;-37
2023/05/28 02:31:45;;;;;;;5.50;2.75;;;11.90;99.90;;;;;;12445515;28;20524;-37
2023/05/28 02:37:47;;;;;;;7.05;3.00;;;11.80;99.90;;;;;;12438964;28;20042;-37
2023/05/28 02:43:49;;;;;;;9.00;3.17;;;11.80;99.90;;;;;;12434631;28;20502;-38
2023/05/28 02:49:51;;;;;;;13.15;2.90;;;11.80;99.90;;;;;;12453503;28;20060;-38
2023/05/28 02:55:53;;;;;;;8.18;2.78;;;11.50;99.90;;;;;;12449701;28;20046;-38
2023/05/28 03:01:55;;;;;;;10.65;3.42;;;11.50;99.90;;;;;;12440357;28;20042;-38
2023/05/28 03:07:58;;;;;;;8.63;3.03;;;11.50;99.90;;;;;;12440871;28;20050;-38
2023/05/28 03:14:00;;;;;;;6.53;3.33;;;11.50;99.90;;;;;;12435786;28;20419;-38
2023/05/28 03:20:03;;;;;;;9.15;3.15;;;11.40;99.90;;;;;;12441309;28;20402;-38
2023/05/28 03:26:05;;;;;;;7.80;3.00;;;11.40;99.90;;;;;;12449109;28;20054;-38
2023/05/28 03:32:07;;;;;;;7.55;3.03;;;11.50;99.90;;;;;;12453633;28;20096;-38
2023/05/28 03:38:08;;;;;;;7.78;3.00;;;11.40;99.90;;;;;;12439922;28;20080;-38
2023/05/28 03:44:10;;;;;;;9.95;3.30;;;11.40;99.90;;;;;;12441710;28;20050;-38
2023/05/28 03:50:12;;;;;;;8.23;3.00;;;11.40;99.90;;;;;;12437674;28;20065;-38
2023/05/28 03:56:14;;;;;;;6.45;3.05;;;11.50;99.90;;;;;;12438011;28;20498;-38
2023/05/28 04:02:16;;;;;;;8.25;3.10;;;11.90;99.90;;;;;;12438978;28;20050;-38
2023/05/28 04:08:18;;;;;;;11.23;3.50;;;12.60;99.90;;;;;;12427762;28;20045;-38
2023/05/28 04:14:20;;;;;;;7.55;3.00;;;14.00;99.90;;;;;;12431852;28;20041;-38
2023/05/28 04:20:22;;;;;;;5.00;2.17;;;14.70;99.90;;;;;;12434655;28;20042;-38
2023/05/28 04:26:24;;;;;;;7.05;2.75;;;15.40;99.90;;;;;;12428488;28;20092;-38
2023/05/28 04:32:31;;;;;;;8.30;2.92;;;15.60;99.90;;;;;;12431943;28;20053;-37
2023/05/28 04:38:33;;;;;;;5.68;3.13;;;15.50;99.90;;;;;;12428703;28;20096;-38
2023/05/28 04:44:34;;;;;;;7.05;3.17;;;16.00;99.90;;;;;;12427904;28;20093;-38
2023/05/28 04:50:36;;;;;;;6.20;2.38;;;16.70;99.90;;;;;;12440751;28;20064;-38
2023/05/28 04:56:38;;;;;;;6.30;2.65;;;16.90;99.90;;;;;;12450497;28;20048;-38
2023/05/28 05:02:43;;;;;;;6.60;2.90;;;16.10;99.90;;;;;;12427612;28;20095;-38
2023/05/28 05:08:45;;;;;;;6.55;2.60;;;15.60;99.90;;;;;;12441674;28;20056;-38
2023/05/28 05:14:49;;;;;;;7.00;3.65;;;15.10;99.90;;;;;;12445375;28;20042;-37
2023/05/28 05:20:51;;;;;;;6.97;3.30;;;14.60;99.90;;;;;;12448035;28;20084;-38
2023/05/28 05:26:53;;;;;;;7.07;3.75;;;14.40;99.90;;;;;;12462856;28;20604;-38
2023/05/28 05:32:55;;;;;;;9.93;4.47;;;14.20;99.90;;;;;;12444044;28;20053;-38
2023/05/28 05:38:57;;;;;;;5.93;3.60;;;14.00;99.90;;;;;;12445053;28;20937;-38
2023/05/28 05:44:59;;;;;;;9.25;3.45;;;14.00;99.90;;;;;;12438817;28;20057;-38
2023/05/28 05:51:02;;;;;;;12.57;3.60;;;14.00;99.90;;;;;;12441390;28;20277;-38
2023/05/28 05:57:04;;;;;;;8.97;3.43;;;14.20;99.90;;;;;;12449054;28;20490;-38
2023/05/28 06:03:06;;;;;;;6.93;2.75;;;14.50;99.90;;;;;;12441996;28;20042;-38
2023/05/28 06:09:08;;;;;;;9.02;4.30;;;14.80;99.90;;;;;;12442505;28;20054;-38
2023/05/28 06:15:11;;;;;;;5.75;3.03;;;14.90;99.90;;;;;;12443376;28;20490;-39
2023/05/28 06:21:13;;;;;;;7.20;3.25;;;14.90;99.90;;;;;;12445140;28;20057;-38
2023/05/28 06:27:15;;;;;;;8.52;3.45;;;15.00;99.90;;;;;;12443380;28;20046;-38
2023/05/28 06:33:18;;;;;;;5.28;3.03;;;15.30;99.90;;;;;;12446826;28;20049;-38
2023/05/28 06:39:20;;;;;;;7.70;3.08;;;15.60;99.90;;;;;;12451784;28;20061;-39
2023/05/28 06:45:22;;;;;;;4.95;2.38;;;15.80;99.90;;;;;;12440583;28;20053;-38
2023/05/28 06:51:26;;;;;;;7.32;2.88;;;16.70;99.90;;;;;;12440604;28;20405;-39
2023/05/28 06:57:28;;;;;;;10.17;3.67;;;16.90;99.90;;;;;;12448107;28;20510;-39
2023/05/28 07:03:30;;;;;;;6.68;2.75;;;17.10;99.90;;;;;;12439871;28;20125;-38
2023/05/28 07:09:32;;;;;;;7.65;3.17;;;17.00;99.90;;;;;;12436086;28;20502;-38
2023/05/28 07:15:34;;;;;;;9.52;2.83;;;17.10;99.90;;;;;;12425946;28;20049;-40
2023/05/28 07:21:38;;;;;;;8.63;3.00;;;16.90;99.90;;;;;;12440667;28;20490;-38
2023/05/28 07:27:40;;;;;;;8.20;2.60;;;17.00;99.90;;;;;;12416728;28;20046;-38
2023/05/28 07:33:42;;;;;;;7.38;2.50;;;17.10;99.90;;;;;;12414603;28;20038;-38
2023/05/28 07:39:44;;;;;;;7.53;2.83;;;17.20;99.90;;;;;;12418952;28;20129;-38
2023/05/28 07:45:45;;;;;;;8.68;2.42;;;17.40;99.90;;;;;;12416163;28;20214;-38
2023/05/28 07:51:48;;;;;;;10.18;2.78;;;17.70;99.90;;;;;;12437185;28;20041;-39
2023/05/28 07:57:50;;;;;;;10.07;2.70;;;17.90;99.90;;;;;;12439400;28;20042;-39
2023/05/28 08:03:54;;;;;;;6.93;2.80;;;18.00;99.90;;;;;;12434807;28;20049;-39
2023/05/28 08:09:56;;;;;;;8.82;2.60;;;18.10;99.90;;;;;;12432775;28;20046;-40
2023/05/28 08:15:59;;;;;;;8.85;2.42;;;18.10;99.90;;;;;;12431060;28;20049;-40
2023/05/28 08:22:04;;;;;;;8.63;2.53;;;18.50;99.90;;;;;;12433677;28;20045;-40
2023/05/28 08:28:09;;;;;;;5.32;1.65;;;18.60;99.90;;;;;;12438569;28;20053;-39
2023/05/28 08:34:11;;;;;;;5.72;2.15;;;18.40;99.90;;;;;;12431188;28;20050;-39
2023/05/28 08:40:14;;;;;;;6.22;1.90;;;18.20;99.90;;;;;;12430809;28;20138;-39
2023/05/28 08:46:17;;;;;;;6.07;1.80;;;18.00;99.90;;;;;;12441987;28;20494;-39
2023/05/28 08:52:20;;;;;;;7.55;2.33;;;18.10;99.90;;;;;;12450547;28;20077;-39
2023/05/28 08:58:22;;;;;;;7.22;1.95;;;18.50;99.90;;;;;;12440394;28;20112;-39
2023/05/28 09:04:24;;;;;;;7.47;2.35;;;18.80;99.90;;;;;;12445751;28;20049;-38
2023/05/28 09:10:29;;;;;;;6.72;2.17;;;19.10;99.90;;;;;;12445912;28;20045;-38
2023/05/28 09:16:34;;;;;;;6.95;2.65;;;19.20;99.90;;;;;;12445493;28;20046;-40
2023/05/28 09:22:36;;;;;;;9.20;2.28;;;19.70;99.90;;;;;;12449149;28;20473;-40
2023/05/28 09:28:44;;;;;;;5.60;2.30;;;20.00;99.90;;;;;;12444911;28;20375;-39
2023/05/28 09:34:46;;;;;;;7.55;2.38;;;20.10;99.90;;;;;;12438098;28;20149;-41
2023/05/28 09:40:48;;;;;;;8.57;2.50;;;20.50;99.90;;;;;;12446106;28;20053;-39
2023/05/28 09:46:50;;;;;;;6.65;2.20;;;20.10;99.90;;;;;;12444633;28;20050;-41
2023/05/28 09:52:55;;;;;;;7.95;2.78;;;20.80;99.90;;;;;;12443213;28;20065;-40
2023/05/28 09:58:59;;;;;;;7.25;2.85;;;21.20;99.90;;;;;;12444852;28;20054;-39
2023/05/28 10:05:06;;;;;;;8.57;2.53;;;20.40;99.90;;;;;;12459688;28;20046;-40
2023/05/28 10:11:13;;;;;;;7.53;2.50;;;20.60;99.90;;;;;;12441260;28;20148;-40
2023/05/28 10:17:17;;;;;;;8.07;2.60;;;20.50;99.90;;;;;;12444595;28;20046;-40
2023/05/28 10:23:21;;;;;;;4.47;2.05;;;20.00;99.90;;;;;;12451986;28;20053;-40
2023/05/28 10:29:23;;;;;;;9.68;2.53;;;20.40;99.90;;;;;;12442331;28;20053;-40
2023/05/28 10:35:24;;;;;;;7.93;2.63;;;20.10;99.90;;;;;;12439362;28;20064;-39
2023/05/28 10:41:34;;;;;;;10.60;2.42;;;20.10;99.90;;;;;;12442094;28;20065;-40
2023/05/28 10:47:51;;;;;;;9.02;2.65;;;20.10;99.90;;;;;;12455442;28;20048;-40
2023/05/28 10:53:54;;;;;;;9.48;2.50;;;19.80;99.90;;;;;;12455630;28;20080;-40
2023/05/28 11:00:00;;;;;;;7.18;2.40;;;20.00;99.90;;;;;;12439914;28;20069;-40
2023/05/28 11:06:04;;;;;;;6.28;2.60;;;20.20;99.90;;;;;;12435660;28;20099;-38
2023/05/28 11:12:06;;;;;;;7.85;2.45;;;20.50;99.90;;;;;;12416747;28;20128;-39
2023/05/28 11:18:08;;;;;;;7.78;2.70;;;21.10;99.90;;;;;;12428301;28;20050;-39
2023/05/28 11:24:10;;;;;;;7.07;2.80;;;21.40;99.90;;;;;;12426546;28;20046;-40
2023/05/28 11:30:16;;;;;;;7.72;2.67;;;21.40;99.90;;;;;;12448772;28;20050;-40
2023/05/28 11:36:21;;;;;;;8.88;2.85;;;21.80;99.90;;;;;;12416380;28;20050;-39
2023/05/28 11:42:27;;;;;;;8.23;3.10;;;22.40;99.90;;;;;;12437409;28;20058;-39
2023/05/28 11:48:36;;;;;;;6.43;2.40;;;21.70;99.90;;;;;;12441678;28;20050;-39
2023/05/28 11:54:43;;;;;;;7.90;2.47;;;21.40;99.90;;;;;;12436197;28;20384;-38
2023/05/28 12:00:45;;;;;;;8.32;2.90;;;21.20;99.90;;;;;;12438889;28;20505;-38
2023/05/28 12:06:55;;;;;;;9.05;2.63;;;21.40;99.90;;;;;;12439633;28;20445;-39
2023/05/28 12:12:57;;;;;;;5.85;2.28;;;21.70;99.90;;;;;;12440875;28;20038;-38
2023/05/28 12:19:01;;;;;;;7.90;2.47;;;21.40;99.90;;;;;;12449095;28;20414;-40
2023/05/28 12:25:04;;;;;;;7.05;2.47;;;21.50;99.90;;;;;;12477861;28;20049;-38
2023/05/28 12:31:08;;;;;;;6.65;2.30;;;22.00;99.90;;;;;;12445631;28;20057;-38
2023/05/28 12:37:10;;;;;;;7.55;2.40;;;21.70;99.90;;;;;;12447358;28;20038;-39
2023/05/28 12:43:12;;;;;;;9.30;2.50;;;21.50;99.90;;;;;;12441502;28;20096;-39
2023/05/28 12:49:14;;;;;;;6.07;2.50;;;22.00;99.90;;;;;;12448687;28;20046;-39
2023/05/28 12:55:16;;;;;;;9.60;3.05;;;21.80;99.90;;;;;;12446989;28;20046;-39
2023/05/28 13:01:18;;;;;;;7.57;2.60;;;21.90;99.90;;;;;;12446030;28;20034;-40
2023/05/28 13:07:20;;;;;;;7.93;2.78;;;22.20;99.90;;;;;;12447975;28;20132;-38
2023/05/28 13:13:22;;;;;;;7.43;2.83;;;21.80;99.90;;;;;;12442303;28;20053;-39
2023/05/28 13:19:25;;;;;;;9.20;2.90;;;21.80;99.90;;;;;;12445776;28;20626;-40
2023/05/28 13:25:27;;;;;;;7.80;2.80;;;22.00;99.90;;;;;;12443667;28;20061;-40
2023/05/28 13:31:28;;;;;;;6.85;2.60;;;22.00;99.90;;;;;;12445778;28;20161;-40
2023/05/28 13:37:32;;;;;;;9.00;3.03;;;21.80;99.90;;;;;;12443017;28;20077;-39
2023/05/28 13:43:37;;;;;;;7.25;2.88;;;21.80;99.90;;;;;;12447524;28;20046;-40
2023/05/28 13:49:39;;;;;;;5.22;2.33;;;21.70;99.90;;;;;;12437590;28;20050;-40
2023/05/28 13:55:40;;;;;;;8.68;2.67;;;22.20;99.90;;;;;;12440457;28;20046;-39
2023/05/28 14:01:42;;;;;;;7.78;2.72;;;21.90;99.90;;;;;;12442339;28;20046;-39
2023/05/28 14:07:44;;;;;;;10.15;3.28;;;21.90;99.90;;;;;;12440707;28;20045;-39
2023/05/28 14:13:46;;;;;;;5.47;2.20;;;21.70;99.90;;;;;;12442088;28;20077;-39
2023/05/28 14:19:48;;;;;;;8.60;2.70;;;22.10;99.90;;;;;;12438367;28;20057;-40
2023/05/28 14:25:50;;;;;;;6.03;2.55;;;22.20;99.90;;;;;;12440391;28;20050;-39
2023/05/28 14:31:52;;;;;;;6.82;2.60;;;22.20;99.90;;;;;;12440054;28;20121;-39
2023/05/28 14:37:54;;;;;;;7.93;2.63;;;22.50;99.90;;;;;;12438470;28;20196;-39
2023/05/28 14:43:56;;;;;;;7.13;2.75;;;22.50;99.90;;;;;;12437174;28;20088;-39
2023/05/28 14:49:58;;;;;;;8.05;2.90;;;22.40;99.90;;;;;;12439750;28;20054;-40
2023/05/28 14:56:00;;;;;;;10.57;3.15;;;22.10;99.90;;;;;;12439753;28;20481;-39
2023/05/28 15:02:02;;;;;;;10.07;3.05;;;22.20;99.90;;;;;;12437912;28;20501;-40
2023/05/28 15:08:04;;;;;;;7.00;3.10;;;22.50;99.90;;;;;;12441316;28;20050;-39
2023/05/28 15:14:05;;;;;;;10.27;3.33;;;22.40;99.90;;;;;;12453986;28;20136;-40
2023/05/28 15:20:08;;;;;;;10.85;3.40;;;22.20;99.90;;;;;;12439547;28;20041;-39
2023/05/28 15:26:10;;;;;;;9.27;2.97;;;21.80;99.90;;;;;;12432137;28;20046;-39
2023/05/28 15:32:14;;;;;;;10.25;3.65;;;21.70;99.90;;;;;;12438614;28;20046;-40
2023/05/28 15:38:17;;;;;;;5.53;3.05;;;21.70;99.90;;;;;;12436987;28;20410;-39
2023/05/28 15:44:19;;;;;;;5.70;2.90;;;22.00;99.90;;;;;;12439802;28;20064;-40
2023/05/28 15:50:21;;;;;;;9.77;3.08;;;21.70;99.90;;;;;;12437642;28;20545;-39
2023/05/28 15:56:23;;;;;;;7.25;3.08;;;21.80;99.90;;;;;;12437798;28;20053;-39
2023/05/28 16:02:29;;;;;;;8.60;2.75;;;21.60;99.90;;;;;;12435619;28;20046;-39
2023/05/28 16:08:31;;;;;;;8.15;3.22;;;21.70;99.90;;;;;;12433368;28;20084;-39
2023/05/28 16:14:34;;;;;;;8.15;2.97;;;21.70;99.90;;;;;;12435192;28;20045;-40
2023/05/28 16:20:36;;;;;;;9.55;2.40;;;22.10;99.90;;;;;;12433811;28;20085;-40
2023/05/28 16:26:38;;;;;;;7.20;3.17;;;21.80;99.90;;;;;;12436227;28;20054;-40
2023/05/28 16:32:41;;;;;;;8.38;2.78;;;22.40;99.90;;;;;;12426644;28;20046;-39
2023/05/28 16:38:43;;;;;;;6.83;3.03;;;22.60;99.90;;;;;;12439142;28;20056;-40
2023/05/28 16:44:45;;;;;;;11.95;3.28;;;22.40;99.90;;;;;;12436284;28;20293;-40
2023/05/28 16:50:48;;;;;;;10.57;3.42;;;22.70;99.90;;;;;;12444176;28;20136;-40
2023/05/28 16:56:50;;;;;;;7.28;3.05;;;22.90;99.90;;;;;;12460611;28;20505;-39
2023/05/28 17:02:52;;;;;;;7.45;2.80;;;22.80;99.90;;;;;;12445368;28;20053;-39
2023/05/28 17:08:54;;;;;;;7.43;2.88;;;23.20;99.90;;;;;;12445171;28;20049;-39
2023/05/28 17:14:56;;;;;;;9.50;3.25;;;23.20;99.90;;;;;;12436310;28;20041;-40
2023/05/28 17:20:58;;;;;;;7.28;2.72;;;22.30;99.90;;;;;;12438108;28;20124;-40
2023/05/28 17:27:00;;;;;;;9.32;2.95;;;22.70;99.90;;;;;;12444239;28;20058;-40
2023/05/28 17:33:02;;;;;;;8.68;3.25;;;22.90;99.90;;;;;;12441728;28;20521;-40
2023/05/28 17:39:05;;;;;;;8.10;2.90;;;23.40;99.90;;;;;;12442035;28;20180;-39
2023/05/28 17:45:07;;;;;;;10.88;3.70;;;23.60;99.90;;;;;;12443934;28;20049;-40
2023/05/28 17:51:10;;;;;;;9.93;3.60;;;23.50;99.90;;;;;;12442231;28;20399;-40
2023/05/28 17:57:12;;;;;;;9.35;3.10;;;23.10;99.90;;;;;;12441999;28;20042;-40
2023/05/28 18:03:14;;;;;;;7.60;3.50;;;23.40;99.90;;;;;;12441014;28;20066;-40
2023/05/28 18:09:17;;;;;;;6.00;2.95;;;22.70;99.90;;;;;;12440890;28;20042;-38
2023/05/28 18:15:23;;;;;;;7.68;3.40;;;21.90;99.90;;;;;;12439705;28;20486;-38
2023/05/28 18:21:26;;;;;;;7.55;3.08;;;21.10;99.90;;;;;;12439080;28;20065;-37
2023/05/28 18:27:28;;;;;;;10.05;3.00;;;20.40;99.90;;;;;;12442393;28;20045;-37
2023/05/28 18:33:31;;;;;;;11.10;2.33;;;19.90;99.90;;;;;;12440222;28;20045;-38
2023/05/28 18:39:33;;;;;;;8.75;2.80;;;19.50;99.90;;;;;;12441318;28;20050;-37
2023/05/28 18:45:35;;;;;;;4.57;2.30;;;19.10;99.90;;;;;;12442221;28;20041;-37
2023/05/28 18:51:45;;;;;;;7.55;2.60;;;18.90;99.90;;;;;;12441459;28;20056;-37
2023/05/28 18:57:47;;;;;;;6.45;2.58;;;18.70;99.90;;;;;;12442693;28;20410;-38
2023/05/28 19:03:50;;;;;;;8.55;2.70;;;18.40;99.90;;;;;;12441056;28;20414;-37
2023/05/28 19:09:54;;;;;;;9.40;2.35;;;18.20;99.90;;;;;;12432067;28;20072;-38
2023/05/28 19:15:56;;;;;;;11.20;2.80;;;18.00;99.90;;;;;;12425592;28;20073;-36
2023/05/28 19:21:58;;;;;;;8.45;2.70;;;17.60;99.90;;;;;;12432928;28;20042;-36
2023/05/28 19:28:00;;;;;;;8.70;2.50;;;17.40;99.90;;;;;;12438674;28;20132;-36
2023/05/28 19:34:01;;;;;;;7.40;2.70;;;17.30;99.90;;;;;;12439741;28;20085;-37
2023/05/28 19:40:05;;;;;;;9.02;3.20;;;16.90;99.90;;;;;;12442719;28;20506;-39
2023/05/28 19:46:07;;;;;;;6.13;2.60;;;16.80;99.90;;;;;;12440315;28;20053;-39
2023/05/28 19:52:09;;;;;;;7.28;2.70;;;16.70;99.90;;;;;;12447933;28;20046;-38
2023/05/28 19:58:11;;;;;;;7.82;2.70;;;16.60;99.90;;;;;;12445036;28;21016;-39
2023/05/28 20:04:14;;;;;;;6.72;2.58;;;16.50;99.90;;;;;;12440427;28;20046;-38
2023/05/28 20:10:16;;;;;;;7.43;2.63;;;16.60;99.90;;;;;;12451325;28;20060;-39
2023/05/28 20:16:20;;;;;;;5.30;2.47;;;16.50;99.90;;;;;;12439263;28;20042;-39
2023/05/28 20:22:22;;;;;;;9.23;2.70;;;16.40;99.90;;;;;;12443672;28;20473;-38
2023/05/28 20:28:24;;;;;;;9.55;2.88;;;16.30;99.90;;;;;;12448987;28;20050;-39
2023/05/28 20:34:26;;;;;;;5.60;2.58;;;16.30;99.90;;;;;;12449760;28;20556;-39
2023/05/28 20:40:32;;;;;;;8.40;2.50;;;16.20;99.90;;;;;;12451251;28;20038;-38
2023/05/28 20:46:34;;;;;;;7.50;2.35;;;16.00;99.90;;;;;;12447952;28;20050;-38
2023/05/28 20:52:36;;;;;;;4.32;2.17;;;15.70;99.90;;;;;;12447591;28;20508;-38
2023/05/28 20:58:38;;;;;;;9.32;3.03;;;15.40;99.90;;;;;;12448844;28;20061;-41
2023/05/28 21:04:40;;;;;;;5.35;2.40;;;15.30;99.90;;;;;;12446923;28;20042;-39
2023/05/28 21:10:48;;;;;;;3.67;2.22;;;15.20;99.90;;;;;;12444505;28;20449;-39
2023/05/28 21:16:49;;;;;;;4.07;2.20;;;15.10;99.90;;;;;;12444938;28;20077;-40
2023/05/28 21:22:51;;;;;;;6.55;2.58;;;15.00;99.90;;;;;;12441564;28;20164;-38
2023/05/28 21:28:53;;;;;;;7.03;2.60;;;15.00;99.90;;;;;;12436062;28;20596;-39
2023/05/28 21:34:55;;;;;;;6.50;2.67;;;14.70;99.90;;;;;;12445715;28;20406;-38
2023/05/28 21:40:57;;;;;;;10.05;2.58;;;14.90;99.90;;;;;;12459733;28;20501;-39
2023/05/28 21:46:59;;;;;;;12.93;2.97;;;14.80;99.90;;;;;;12445882;28;20049;-38
2023/05/28 21:53:01;;;;;;;6.70;2.60;;;14.50;99.90;;;;;;12445293;28;20046;-39
2023/05/28 21:59:03;;;;;;;5.93;2.72;;;14.50;99.90;;;;;;12445468;28;20050;-38
2023/05/28 22:05:05;;;;;;;9.05;3.15;;;14.40;99.90;;;;;;12440696;28;20418;-39
2023/05/28 22:11:07;;;;;;;7.70;3.15;;;14.30;99.90;;;;;;12442990;28;20467;-39
2023/05/28 22:17:10;;;;;;;9.07;2.97;;;14.10;99.90;;;;;;12444549;28;20084;-39
2023/05/28 22:23:12;;;;;;;8.73;3.17;;;14.20;99.90;;;;;;12451328;28;20038;-38
2023/05/28 22:29:14;;;;;;;6.68;3.13;;;14.50;99.90;;;;;;12440012;28;20047;-40
2023/05/28 22:35:16;;;;;;;7.28;3.50;;;14.70;99.90;;;;;;12442147;28;20414;-38
2023/05/28 22:41:19;;;;;;;13.15;4.00;;;14.70;99.90;;;;;;12444977;28;20049;-38
2023/05/28 22:47:26;;;;;;;10.73;3.35;;;14.70;99.90;;;;;;12443734;28;20065;-38
2023/05/28 22:53:28;;;;;;;11.35;3.33;;;14.50;99.90;;;;;;12441403;28;20204;-39
2023/05/28 22:59:30;;;;;;;8.90;3.17;;;14.00;99.90;;;;;;12442349;28;21289;-38
2023/05/28 23:05:32;;;;;;;10.23;3.20;;;13.80;99.90;;;;;;12440752;28;20457;-38
2023/05/28 23:11:34;;;;;;;11.32;3.22;;;13.70;99.90;;;;;;12441999;28;20115;-38
2023/05/28 23:17:37;;;;;;;11.63;2.92;;;13.80;99.90;;;;;;12441277;28;20050;-38
2023/05/28 23:23:39;;;;;;;9.10;2.70;;;13.80;99.90;;;;;;12440950;28;20042;-39
2023/05/28 23:29:41;;;;;;;12.38;3.28;;;13.50;99.90;;;;;;12439419;28;20133;-38
2023/05/28 23:35:43;;;;;;;12.52;2.72;;;13.50;99.90;;;;;;12438666;28;20073;-38
2023/05/28 23:41:46;;;;;;;15.38;3.55;;;13.20;99.90;;;;;;12439093;28;20045;-38
2023/05/28 23:47:47;;;;;;;9.45;3.15;;;13.40;99.90;;;;;;12440103;28;20081;-38
2023/05/28 23:53:49;;;;;;;13.45;2.78;;;13.60;99.90;;;;;;12441382;28;20105;-38
2023/05/28 23:59:51;;;;;;;9.30;2.58;;;13.00;99.90;;;;;;12439918;28;20494;-38
